Time;durP1;ratioP1;P1;durP2;ratioP2;P2;SDS_P1;SDS_P2;PMS_P1;PMS_P2;Temp;Humidity;BMP_temperature;BMP_pressure;BME280_temperature;BME280_humidity;BME280_pressure;Samples;Min_cycle;Max_cycle;Signal;HPM_P1;HPM_P2
2021/03/23 00:01:08;;;;;;;0.10;0.10;;;;;;;;;;5085215;28;20613;-71
2021/03/23 00:03:36;;;;;;;0.20;0.20;;;;;;;;;;5084408;28;20683;-71
2021/03/23 00:06:03;;;;;;;0.10;0.10;;;;;;;;;;5092078;28;20160;-71
2021/03/23 00:08:32;;;;;;;1.13;0.80;;;;;;;;;;5085845;28;20272;-71
2021/03/23 00:10:59;;;;;;;0.20;0.20;;;;;;;;;;5061174;28;20189;-71
2021/03/23 00:13:26;;;;;;;0.43;0.43;;;;;;;;;;5051933;28;20197;-71
2021/03/23 00:15:53;;;;;;;0.10;0.10;;;;;;;;;;5051945;28;20164;-71
2021/03/23 00:18:20;;;;;;;0.10;0.10;;;;;;;;;;5041894;28;20192;-71
2021/03/23 00:20:47;;;;;;;0.35;0.35;;;;;;;;;;5071797;28;20169;-71
2021/03/23 00:23:14;;;;;;;0.10;0.10;;;;;;;;;;5052795;28;20180;-71
2021/03/23 00:25:40;;;;;;;0.10;0.10;;;;;;;;;;5071780;28;20161;-71
2021/03/23 00:28:07;;;;;;;0.10;0.10;;;;;;;;;;5071555;28;20200;-71
2021/03/23 00:30:33;;;;;;;0.25;0.25;;;;;;;;;;5071646;28;20175;-71
2021/03/23 00:33:00;;;;;;;0.00;0.00;;;;;;;;;;5071529;28;20189;-71
2021/03/23 00:35:26;;;;;;;0.10;0.10;;;;;;;;;;5071465;28;20196;-71
2021/03/23 00:37:54;;;;;;;4.30;1.10;;;;;;;;;;5070618;28;20168;-71
2021/03/23 00:40:22;;;;;;;0.95;0.95;;;;;;;;;;5071108;28;20636;-71
2021/03/23 00:42:49;;;;;;;0.73;0.73;;;;;;;;;;5053557;28;20172;-72
2021/03/23 00:45:16;;;;;;;0.73;0.73;;;;;;;;;;5071293;28;20200;-71
2021/03/23 00:47:42;;;;;;;0.10;0.10;;;;;;;;;;5071004;28;20283;-71
2021/03/23 00:50:09;;;;;;;0.30;0.30;;;;;;;;;;5071236;28;20161;-71
2021/03/23 00:52:36;;;;;;;0.10;0.10;;;;;;;;;;5053411;28;20219;-71
2021/03/23 00:55:02;;;;;;;1.73;1.67;;;;;;;;;;5071154;28;20207;-71
2021/03/23 00:57:29;;;;;;;0.50;0.50;;;;;;;;;;5071140;28;20153;-71
2021/03/23 00:59:55;;;;;;;0.10;0.10;;;;;;;;;;5071064;28;20637;-71
2021/03/23 01:02:21;;;;;;;0.75;0.65;;;;;;;;;;5071061;28;20165;-71
2021/03/23 01:04:48;;;;;;;0.17;0.17;;;;;;;;;;5070915;28;20189;-72
2021/03/23 01:07:15;;;;;;;0.25;0.25;;;;;;;;;;5070943;28;20172;-72
2021/03/23 01:09:41;;;;;;;0.10;0.10;;;;;;;;;;5070993;28;20240;-72
2021/03/23 01:12:09;;;;;;;0.13;0.13;;;;;;;;;;5070853;28;20351;-71
2021/03/23 01:14:36;;;;;;;0.10;0.10;;;;;;;;;;5070712;28;20266;-71
2021/03/23 01:17:02;;;;;;;0.10;0.10;;;;;;;;;;5070917;28;20188;-71
2021/03/23 01:19:29;;;;;;;0.30;0.30;;;;;;;;;;5070757;28;20157;-71
2021/03/23 01:21:55;;;;;;;0.20;0.20;;;;;;;;;;5052904;28;20199;-71
2021/03/23 01:24:22;;;;;;;0.30;0.30;;;;;;;;;;5052778;28;20196;-71
2021/03/23 01:26:48;;;;;;;1.25;1.20;;;;;;;;;;5070561;28;20165;-71
2021/03/23 01:29:14;;;;;;;0.10;0.10;;;;;;;;;;5070543;28;20172;-71
2021/03/23 01:31:41;;;;;;;0.10;0.10;;;;;;;;;;5070458;28;20192;-71
2021/03/23 01:34:07;;;;;;;0.32;0.32;;;;;;;;;;5070300;28;20192;-71
2021/03/23 01:36:33;;;;;;;0.38;0.38;;;;;;;;;;5070369;28;20192;-71
2021/03/23 01:38:59;;;;;;;0.43;0.43;;;;;;;;;;5070437;28;20184;-72
2021/03/23 01:41:26;;;;;;;0.10;0.10;;;;;;;;;;5052438;28;20172;-71
2021/03/23 01:43:52;;;;;;;0.10;0.10;;;;;;;;;;5070158;28;20214;-72
2021/03/23 01:46:40;;;;;;;0.10;0.10;;;;;;;;;;5070197;28;20168;-71
2021/03/23 01:49:15;;;;;;;0.20;0.20;;;;;;;;;;5069905;28;20212;-71
2021/03/23 01:51:42;;;;;;;0.40;0.40;;;;;;;;;;5069966;28;20252;-71
2021/03/23 01:54:11;;;;;;;1.58;1.48;;;;;;;;;;5070003;28;20567;-71
2021/03/23 01:56:37;;;;;;;0.10;0.10;;;;;;;;;;5052184;28;20161;-71
2021/03/23 01:59:04;;;;;;;0.10;0.10;;;;;;;;;;5052071;28;20168;-73
2021/03/23 02:01:31;;;;;;;0.25;0.25;;;;;;;;;;5069891;28;20153;-71
2021/03/23 02:03:58;;;;;;;0.20;0.20;;;;;;;;;;5069739;28;20200;-71
2021/03/23 02:06:39;;;;;;;0.85;0.85;;;;;;;;;;5069875;28;20160;-71
2021/03/23 02:09:06;;;;;;;0.20;0.20;;;;;;;;;;5051931;28;20192;-72
2021/03/23 02:11:33;;;;;;;0.35;0.35;;;;;;;;;;5069676;28;20164;-73
2021/03/23 02:14:00;;;;;;;0.20;0.20;;;;;;;;;;5069601;28;20214;-72
2021/03/23 02:16:26;;;;;;;0.28;0.28;;;;;;;;;;5051760;28;20251;-71
2021/03/23 02:18:53;;;;;;;0.15;0.15;;;;;;;;;;5051750;28;20356;-72
2021/03/23 02:21:20;;;;;;;0.38;0.38;;;;;;;;;;5069558;28;20160;-72
2021/03/23 02:23:51;;;;;;;0.38;0.38;;;;;;;;;;5069445;28;20200;-72
2021/03/23 02:26:28;;;;;;;0.17;0.17;;;;;;;;;;5069500;28;20160;-71
2021/03/23 02:28:56;;;;;;;0.45;0.45;;;;;;;;;;5069387;28;20188;-72
2021/03/23 02:31:40;;;;;;;0.13;0.13;;;;;;;;;;5069356;28;20163;-72
2021/03/23 02:34:09;;;;;;;0.20;0.20;;;;;;;;;;5069389;28;20275;-72
2021/03/23 02:36:37;;;;;;;0.65;0.65;;;;;;;;;;5070436;28;20160;-72
2021/03/23 02:39:04;;;;;;;1.17;1.17;;;;;;;;;;5089306;28;20170;-71
2021/03/23 02:41:30;;;;;;;0.40;0.40;;;;;;;;;;5089279;28;20168;-73
2021/03/23 02:43:56;;;;;;;0.15;0.15;;;;;;;;;;5071215;28;20198;-72
2021/03/23 02:46:23;;;;;;;0.10;0.10;;;;;;;;;;5088783;28;20574;-71
2021/03/23 02:48:50;;;;;;;1.13;1.13;;;;;;;;;;5071109;28;20219;-71
2021/03/23 02:51:17;;;;;;;0.10;0.10;;;;;;;;;;5089088;28;20220;-72
2021/03/23 02:53:44;;;;;;;0.10;0.10;;;;;;;;;;5089218;28;20164;-72
2021/03/23 02:56:10;;;;;;;0.30;0.30;;;;;;;;;;5089183;28;20184;-72
2021/03/23 02:58:37;;;;;;;0.28;0.28;;;;;;;;;;5089030;28;20211;-72
2021/03/23 03:01:03;;;;;;;0.10;0.10;;;;;;;;;;5089167;28;20171;-71
2021/03/23 03:03:30;;;;;;;0.47;0.47;;;;;;;;;;5089180;28;20164;-70
2021/03/23 03:05:56;;;;;;;0.80;0.80;;;;;;;;;;5089124;28;20263;-72
2021/03/23 03:08:23;;;;;;;0.10;0.10;;;;;;;;;;5071063;28;20206;-71
2021/03/23 03:10:50;;;;;;;0.10;0.10;;;;;;;;;;5089094;28;20164;-71
2021/03/23 03:13:16;;;;;;;0.15;0.15;;;;;;;;;;5071161;28;20226;-71
2021/03/23 03:15:42;;;;;;;0.85;0.85;;;;;;;;;;5071054;28;20667;-71
2021/03/23 03:18:09;;;;;;;0.10;0.10;;;;;;;;;;5089020;28;20243;-72
2021/03/23 03:20:35;;;;;;;0.10;0.10;;;;;;;;;;5071147;28;20168;-73
2021/03/23 03:23:01;;;;;;;0.40;0.40;;;;;;;;;;5089111;28;20190;-73
2021/03/23 03:25:27;;;;;;;0.25;0.25;;;;;;;;;;5089026;28;20187;-72
2021/03/23 03:27:53;;;;;;;0.20;0.20;;;;;;;;;;5088936;28;20255;-72
2021/03/23 03:30:22;;;;;;;0.20;0.20;;;;;;;;;;5089044;28;20168;-72
2021/03/23 03:32:49;;;;;;;0.10;0.10;;;;;;;;;;5088895;28;20199;-72
2021/03/23 03:35:16;;;;;;;0.10;0.10;;;;;;;;;;5070830;28;20640;-71
2021/03/23 03:37:42;;;;;;;1.45;1.45;;;;;;;;;;5088734;28;20211;-72
2021/03/23 03:40:10;;;;;;;0.13;0.13;;;;;;;;;;5070936;28;20167;-71
2021/03/23 03:42:36;;;;;;;0.10;0.10;;;;;;;;;;5089053;28;20187;-71
2021/03/23 03:45:05;;;;;;;0.10;0.10;;;;;;;;;;5088648;28;20547;-71
2021/03/23 03:47:31;;;;;;;0.52;0.52;;;;;;;;;;5070421;28;20247;-71
2021/03/23 03:49:57;;;;;;;0.98;0.98;;;;;;;;;;5070754;28;20547;-72
2021/03/23 03:52:23;;;;;;;0.17;0.17;;;;;;;;;;5070658;28;20684;-72
2021/03/23 03:54:49;;;;;;;0.20;0.20;;;;;;;;;;5088291;28;20576;-71
2021/03/23 03:57:16;;;;;;;0.10;0.10;;;;;;;;;;5088259;28;20211;-71
2021/03/23 03:59:42;;;;;;;0.10;0.10;;;;;;;;;;5091413;28;20161;-71
2021/03/23 04:02:08;;;;;;;0.10;0.10;;;;;;;;;;5074327;28;20195;-72
2021/03/23 04:04:34;;;;;;;0.68;0.68;;;;;;;;;;5074224;28;20172;-72
2021/03/23 04:07:00;;;;;;;0.30;0.30;;;;;;;;;;5092167;28;20202;-71
2021/03/23 04:09:27;;;;;;;0.47;0.47;;;;;;;;;;5091960;28;20167;-72
2021/03/23 04:11:53;;;;;;;0.10;0.10;;;;;;;;;;5074038;28;20223;-72
2021/03/23 04:14:19;;;;;;;0.10;0.10;;;;;;;;;;5092000;28;20160;-72
2021/03/23 04:16:45;;;;;;;0.10;0.10;;;;;;;;;;5091878;28;20195;-72
2021/03/23 04:19:11;;;;;;;0.52;0.52;;;;;;;;;;5091974;28;20160;-72
2021/03/23 04:21:37;;;;;;;0.30;0.30;;;;;;;;;;5073749;28;20217;-72
2021/03/23 04:24:04;;;;;;;0.28;0.28;;;;;;;;;;5074008;28;20183;-72
2021/03/23 04:26:30;;;;;;;0.10;0.10;;;;;;;;;;5091796;28;20617;-72
2021/03/23 04:28:56;;;;;;;0.10;0.10;;;;;;;;;;5091876;28;20167;-72
2021/03/23 04:31:43;;;;;;;0.22;0.22;;;;;;;;;;5091362;28;20184;-71
2021/03/23 04:34:11;;;;;;;0.10;0.10;;;;;;;;;;5091752;28;20155;-71
2021/03/23 04:36:37;;;;;;;0.10;0.10;;;;;;;;;;5091505;28;20216;-71
2021/03/23 04:39:05;;;;;;;0.55;0.55;;;;;;;;;;5091514;28;20156;-71
2021/03/23 04:41:31;;;;;;;0.10;0.10;;;;;;;;;;5091616;28;20160;-72
2021/03/23 04:43:57;;;;;;;0.10;0.10;;;;;;;;;;5091350;28;20164;-72
2021/03/23 04:46:27;;;;;;;0.10;0.10;;;;;;;;;;5091615;28;20168;-72
2021/03/23 04:48:54;;;;;;;0.20;0.20;;;;;;;;;;5091119;28;20223;-72
2021/03/23 04:51:21;;;;;;;0.10;0.10;;;;;;;;;;5091279;28;20162;-72
2021/03/23 04:53:47;;;;;;;0.32;0.32;;;;;;;;;;5073170;28;20195;-72
2021/03/23 04:56:19;;;;;;;0.10;0.10;;;;;;;;;;5072998;28;20179;-72
2021/03/23 04:58:45;;;;;;;0.15;0.15;;;;;;;;;;5090612;28;20192;-71
2021/03/23 05:01:11;;;;;;;0.25;0.25;;;;;;;;;;5091009;28;20167;-71
2021/03/23 05:03:38;;;;;;;0.22;0.22;;;;;;;;;;5091098;28;20168;-72
2021/03/23 05:06:07;;;;;;;0.43;0.40;;;;;;;;;;5073011;28;20172;-72
2021/03/23 05:08:36;;;;;;;0.43;0.43;;;;;;;;;;5090640;28;20192;-72
2021/03/23 05:11:03;;;;;;;0.10;0.10;;;;;;;;;;5090623;28;20185;-72
2021/03/23 05:13:30;;;;;;;0.15;0.15;;;;;;;;;;5090658;28;20184;-72
2021/03/23 05:15:56;;;;;;;0.40;0.40;;;;;;;;;;5072859;28;20628;-72
2021/03/23 05:18:22;;;;;;;0.57;0.57;;;;;;;;;;5072564;28;20226;-71
2021/03/23 05:20:48;;;;;;;0.10;0.10;;;;;;;;;;5090751;28;20160;-72
2021/03/23 05:23:15;;;;;;;0.10;0.10;;;;;;;;;;5090512;28;20171;-72
2021/03/23 05:25:42;;;;;;;0.10;0.10;;;;;;;;;;5072889;28;20160;-72
2021/03/23 05:28:09;;;;;;;1.65;1.55;;;;;;;;;;5090421;28;20199;-72
2021/03/23 05:30:35;;;;;;;8.75;2.30;;;;;;;;;;5090257;28;20160;-72
2021/03/23 05:33:01;;;;;;;0.32;0.32;;;;;;;;;;5090320;28;20275;-72
2021/03/23 05:35:28;;;;;;;0.65;0.65;;;;;;;;;;5072516;28;20168;-72
2021/03/23 05:37:54;;;;;;;0.60;0.60;;;;;;;;;;5072412;28;20222;-71
2021/03/23 05:40:25;;;;;;;0.10;0.10;;;;;;;;;;5090299;28;20242;-72
2021/03/23 05:43:14;;;;;;;0.45;0.45;;;;;;;;;;5090019;28;20168;-72
2021/03/23 05:45:41;;;;;;;0.10;0.10;;;;;;;;;;5076220;28;20199;-72
2021/03/23 05:48:18;;;;;;;0.15;0.15;;;;;;;;;;5089935;28;20279;-71
2021/03/23 05:50:46;;;;;;;0.10;0.10;;;;;;;;;;5089915;28;20180;-72
2021/03/23 05:53:19;;;;;;;0.30;0.30;;;;;;;;;;5089756;28;20192;-72
2021/03/23 05:55:47;;;;;;;0.75;0.75;;;;;;;;;;5089903;28;20161;-72
2021/03/23 05:58:23;;;;;;;1.15;0.93;;;;;;;;;;5089903;28;20257;-72
2021/03/23 06:00:58;;;;;;;0.10;0.10;;;;;;;;;;5089809;28;20152;-72
2021/03/23 06:03:32;;;;;;;0.10;0.10;;;;;;;;;;5089482;28;20167;-72
2021/03/23 06:06:01;;;;;;;0.63;0.63;;;;;;;;;;5089269;28;20164;-72
2021/03/23 06:08:35;;;;;;;1.02;1.02;;;;;;;;;;5089538;28;20229;-72
2021/03/23 06:11:20;;;;;;;0.57;0.57;;;;;;;;;;5089547;28;20206;-72
2021/03/23 06:13:53;;;;;;;0.10;0.10;;;;;;;;;;5089024;28;20191;-72
2021/03/23 06:16:22;;;;;;;0.40;0.40;;;;;;;;;;5071557;28;20257;-72
2021/03/23 06:18:51;;;;;;;0.10;0.10;;;;;;;;;;5089028;28;20191;-72
2021/03/23 06:21:24;;;;;;;0.10;0.10;;;;;;;;;;5070702;28;20175;-72
2021/03/23 06:24:10;;;;;;;0.20;0.20;;;;;;;;;;5089198;28;20192;-72
2021/03/23 06:26:46;;;;;;;0.63;0.63;;;;;;;;;;5089054;28;20168;-72
2021/03/23 06:29:21;;;;;;;0.47;0.47;;;;;;;;;;5089128;28;20159;-72
2021/03/23 06:32:06;;;;;;;1.00;1.00;;;;;;;;;;5089275;28;20236;-72
2021/03/23 06:34:34;;;;;;;0.85;0.85;;;;;;;;;;5089204;28;20156;-72
2021/03/23 06:37:01;;;;;;;1.65;1.40;;;;;;;;;;5070762;28;20191;-72
2021/03/23 06:39:31;;;;;;;0.10;0.10;;;;;;;;;;5071071;28;20168;-72
2021/03/23 06:41:58;;;;;;;0.15;0.15;;;;;;;;;;5089282;28;20163;-72
2021/03/23 06:44:34;;;;;;;1.77;1.08;;;;;;;;;;5088814;28;20160;-72
2021/03/23 06:47:01;;;;;;;3.15;2.17;;;;;;;;;;5088971;28;20217;-72
2021/03/23 06:49:32;;;;;;;0.85;0.85;;;;;;;;;;5088867;28;20224;-72
2021/03/23 06:52:01;;;;;;;0.60;0.60;;;;;;;;;;5088932;28;20243;-72
2021/03/23 06:54:40;;;;;;;0.63;0.63;;;;;;;;;;5088963;28;20170;-72
2021/03/23 06:57:16;;;;;;;0.95;0.95;;;;;;;;;;5070740;28;20199;-72
2021/03/23 07:00:00;;;;;;;0.50;0.50;;;;;;;;;;5089343;28;20159;-72
2021/03/23 07:02:31;;;;;;;0.40;0.40;;;;;;;;;;5088743;28;20175;-72
2021/03/23 07:05:17;;;;;;;0.22;0.22;;;;;;;;;;5089036;28;20196;-71
2021/03/23 07:07:52;;;;;;;0.20;0.20;;;;;;;;;;5088742;28;20218;-71
2021/03/23 07:10:22;;;;;;;0.22;0.22;;;;;;;;;;5081269;28;20192;-71
2021/03/23 07:12:49;;;;;;;5.13;2.72;;;;;;;;;;5068122;28;20192;-71
2021/03/23 07:15:23;;;;;;;1.13;1.13;;;;;;;;;;5068775;28;20160;-72
2021/03/23 07:17:51;;;;;;;1.15;1.15;;;;;;;;;;5068205;28;20192;-72
2021/03/23 07:20:23;;;;;;;1.85;1.75;;;;;;;;;;5050817;28;20239;-71
2021/03/23 07:22:51;;;;;;;2.95;2.75;;;;;;;;;;5050713;28;20176;-72
2021/03/23 07:25:36;;;;;;;0.30;0.30;;;;;;;;;;5068557;28;20228;-72
2021/03/23 07:28:21;;;;;;;0.20;0.20;;;;;;;;;;5050763;28;20192;-73
2021/03/23 07:31:06;;;;;;;0.93;0.93;;;;;;;;;;5068585;28;20157;-73
2021/03/23 07:33:35;;;;;;;1.02;1.02;;;;;;;;;;5061819;28;20204;-72
2021/03/23 07:36:03;;;;;;;0.57;0.57;;;;;;;;;;5066706;28;20169;-73
2021/03/23 07:38:37;;;;;;;0.82;0.82;;;;;;;;;;5066216;28;20223;-72
2021/03/23 07:41:04;;;;;;;1.10;0.98;;;;;;;;;;5083685;28;20213;-72
2021/03/23 07:43:38;;;;;;;0.20;0.20;;;;;;;;;;5084023;28;20160;-73
2021/03/23 07:46:05;;;;;;;2.08;1.98;;;;;;;;;;5080398;28;20171;-73
2021/03/23 07:48:38;;;;;;;0.30;0.30;;;;;;;;;;5068039;28;20322;-73
2021/03/23 07:51:10;;;;;;;0.35;0.35;;;;;;;;;;5085504;28;20183;-72
2021/03/23 07:53:41;;;;;;;1.15;1.13;;;;;;;;;;5086774;28;20198;-73
2021/03/23 07:56:16;;;;;;;3.78;3.28;;;;;;;;;;5086645;28;20164;-73
2021/03/23 07:58:47;;;;;;;0.52;0.52;;;;;;;;;;5068522;28;20206;-73
2021/03/23 08:01:27;;;;;;;1.75;1.27;;;;;;;;;;5060009;28;20188;-70
2021/03/23 08:04:00;;;;;;;1.75;1.65;;;;;;;;;;5052841;28;20200;-71
2021/03/23 08:06:34;;;;;;;1.25;1.10;;;;;;;;;;5061563;28;20173;-71
2021/03/23 08:09:09;;;;;;;6.65;2.05;;;;;;;;;;5048090;28;20208;-71
2021/03/23 08:11:41;;;;;;;0.10;0.10;;;;;;;;;;5047381;28;20223;-72
2021/03/23 08:14:07;;;;;;;0.82;0.82;;;;;;;;;;5066183;28;20192;-72
2021/03/23 08:16:52;;;;;;;1.08;1.02;;;;;;;;;;5066244;28;20165;-72
2021/03/23 08:19:21;;;;;;;0.55;0.55;;;;;;;;;;5065683;28;20167;-71
2021/03/23 08:21:59;;;;;;;0.88;0.88;;;;;;;;;;5047405;28;20204;-72
2021/03/23 08:24:38;;;;;;;3.95;1.45;;;;;;;;;;5048170;28;20282;-72
2021/03/23 08:27:13;;;;;;;0.50;0.50;;;;;;;;;;5047941;28;20176;-72
2021/03/23 08:29:59;;;;;;;0.03;0.03;;;;;;;;;;5048003;28;20992;-71
2021/03/23 08:32:37;;;;;;;1.60;1.45;;;;;;;;;;5065321;28;20212;-72
2021/03/23 08:35:22;;;;;;;0.52;0.52;;;;;;;;;;5065079;28;20222;-73
2021/03/23 08:38:03;;;;;;;7.32;1.65;;;;;;;;;;5057742;28;20241;-72
2021/03/23 08:40:37;;;;;;;1.00;1.00;;;;;;;;;;5054143;28;20178;-73
2021/03/23 08:43:04;;;;;;;0.30;0.30;;;;;;;;;;5059009;28;20679;-73
2021/03/23 08:45:32;;;;;;;0.20;0.20;;;;;;;;;;5064509;28;20971;-74
2021/03/23 08:48:28;;;;;;;0.30;0.30;;;;;;;;;;5056323;28;20209;-73
2021/03/23 08:51:02;;;;;;;0.20;0.20;;;;;;;;;;5014985;28;20197;-66
2021/03/23 08:53:32;;;;;;;0.00;0.00;;;;;;;;;;5054849;28;20212;-67
2021/03/23 08:55:58;;;;;;;0.15;0.15;;;;;;;;;;5048432;28;20285;-67
2021/03/23 08:58:42;;;;;;;0.00;0.00;;;;;;;;;;5027071;28;20212;-66
2021/03/23 09:01:29;;;;;;;0.30;0.30;;;;;;;;;;5010652;28;20190;-67
2021/03/23 09:04:04;;;;;;;0.10;0.10;;;;;;;;;;5025507;28;20173;-67
2021/03/23 09:07:06;;;;;;;0.10;0.10;;;;;;;;;;5026079;28;20223;-67
2021/03/23 09:09:36;;;;;;;0.17;0.17;;;;;;;;;;4929283;29;20301;-67
2021/03/23 09:12:08;;;;;;;1.75;1.55;;;;;;;;;;5010380;28;20219;-67
2021/03/23 09:14:53;;;;;;;0.08;0.08;;;;;;;;;;5025299;28;20214;-67
2021/03/23 09:17:21;;;;;;;0.10;0.10;;;;;;;;;;5020844;28;20220;-67
2021/03/23 09:19:49;;;;;;;2.30;2.10;;;;;;;;;;5044822;28;20150;-67
2021/03/23 09:22:21;;;;;;;0.32;0.30;;;;;;;;;;5044914;28;20160;-67
2021/03/23 09:24:48;;;;;;;0.52;0.52;;;;;;;;;;5044858;28;20216;-67
2021/03/23 09:27:26;;;;;;;0.95;0.85;;;;;;;;;;5044025;28;20205;-67
2021/03/23 09:29:53;;;;;;;0.47;0.47;;;;;;;;;;5026885;28;20192;-67
2021/03/23 09:32:21;;;;;;;0.32;0.30;;;;;;;;;;5026797;28;20279;-67
2021/03/23 09:35:22;;;;;;;1.52;0.30;;;;;;;;;;5044566;28;20567;-67
2021/03/23 09:37:53;;;;;;;0.10;0.10;;;;;;;;;;5026099;28;20701;-67
2021/03/23 09:40:19;;;;;;;0.20;0.20;;;;;;;;;;5007243;28;20249;-67
2021/03/23 09:42:47;;;;;;;0.00;0.00;;;;;;;;;;5024752;28;20162;-67
2021/03/23 09:45:35;;;;;;;0.32;0.32;;;;;;;;;;5024647;28;20154;-67
2021/03/23 09:48:04;;;;;;;0.47;0.30;;;;;;;;;;5030501;28;20229;-67
2021/03/23 09:50:41;;;;;;;3.30;0.80;;;;;;;;;;5043619;28;20187;-67
2021/03/23 09:53:23;;;;;;;0.20;0.20;;;;;;;;;;5044216;28;20204;-67
2021/03/23 09:55:49;;;;;;;1.20;0.60;;;;;;;;;;5062138;28;20184;-67
2021/03/23 09:58:26;;;;;;;0.50;0.50;;;;;;;;;;5046206;28;20175;-67
2021/03/23 10:00:53;;;;;;;0.13;0.13;;;;;;;;;;5063538;28;20195;-67
2021/03/23 10:03:32;;;;;;;0.20;0.20;;;;;;;;;;5064143;28;20622;-67
2021/03/23 10:06:02;;;;;;;4.93;0.45;;;;;;;;;;5064199;28;20156;-67
2021/03/23 10:08:32;;;;;;;0.28;0.28;;;;;;;;;;5046393;28;20726;-67
2021/03/23 10:11:09;;;;;;;0.45;0.45;;;;;;;;;;5063352;28;20157;-67
2021/03/23 10:13:36;;;;;;;0.55;0.55;;;;;;;;;;5064071;28;20189;-67
2021/03/23 10:16:06;;;;;;;0.10;0.10;;;;;;;;;;5046075;28;20176;-67
2021/03/23 10:18:37;;;;;;;0.55;0.40;;;;;;;;;;5044315;28;20242;-67
2021/03/23 10:21:10;;;;;;;0.10;0.10;;;;;;;;;;5044012;28;20187;-67
2021/03/23 10:23:43;;;;;;;1.45;1.40;;;;;;;;;;5025810;28;20220;-67
2021/03/23 10:26:09;;;;;;;0.45;0.45;;;;;;;;;;5044176;28;20169;-68
2021/03/23 10:28:37;;;;;;;0.20;0.20;;;;;;;;;;5063879;28;20196;-67
2021/03/23 10:31:04;;;;;;;0.28;0.28;;;;;;;;;;5045753;28;20180;-67
2021/03/23 10:33:32;;;;;;;0.50;0.50;;;;;;;;;;5044633;28;20272;-67
2021/03/23 10:36:00;;;;;;;0.20;0.20;;;;;;;;;;5063590;28;20180;-67
2021/03/23 10:38:29;;;;;;;1.45;0.90;;;;;;;;;;5063177;28;20204;-68
2021/03/23 10:40:56;;;;;;;7.60;0.57;;;;;;;;;;5063594;28;20168;-68
2021/03/23 10:43:36;;;;;;;1.05;0.80;;;;;;;;;;5065298;28;20179;-67
2021/03/23 10:46:04;;;;;;;0.35;0.35;;;;;;;;;;5078180;28;20176;-68
2021/03/23 10:48:33;;;;;;;0.10;0.10;;;;;;;;;;5045608;28;20267;-68
2021/03/23 10:51:12;;;;;;;0.55;0.55;;;;;;;;;;5063793;28;20161;-75
2021/03/23 10:53:40;;;;;;;0.47;0.20;;;;;;;;;;5062772;28;20195;-75
2021/03/23 10:56:20;;;;;;;0.20;0.20;;;;;;;;;;5045231;28;20188;-75
2021/03/23 10:59:04;;;;;;;0.10;0.10;;;;;;;;;;5045644;28;20176;-74
2021/03/23 11:01:30;;;;;;;0.08;0.08;;;;;;;;;;5063670;28;20576;-75
2021/03/23 11:04:10;;;;;;;0.05;0.05;;;;;;;;;;5044920;28;20184;-75
2021/03/23 11:06:37;;;;;;;0.20;0.20;;;;;;;;;;5044824;28;20200;-75
2021/03/23 11:09:07;;;;;;;0.28;0.22;;;;;;;;;;5063182;28;20180;-74
2021/03/23 11:11:33;;;;;;;0.73;0.73;;;;;;;;;;5063280;28;20180;-74
2021/03/23 11:13:59;;;;;;;0.28;0.28;;;;;;;;;;5063232;28;20171;-74
2021/03/23 11:16:28;;;;;;;0.57;0.57;;;;;;;;;;5062191;28;20222;-74
2021/03/23 11:18:58;;;;;;;0.52;0.50;;;;;;;;;;5066821;28;20199;-74
2021/03/23 11:21:24;;;;;;;0.20;0.20;;;;;;;;;;5050652;28;20172;-74
2021/03/23 11:23:52;;;;;;;0.30;0.30;;;;;;;;;;5068738;28;20168;-74
2021/03/23 11:26:20;;;;;;;0.20;0.20;;;;;;;;;;5068770;28;20172;-73
2021/03/23 11:28:47;;;;;;;0.10;0.10;;;;;;;;;;5068270;28;20196;-74
2021/03/23 11:31:15;;;;;;;0.20;0.20;;;;;;;;;;5068322;28;20416;-75
2021/03/23 11:33:42;;;;;;;0.10;0.10;;;;;;;;;;5068445;28;20181;-75
2021/03/23 11:36:08;;;;;;;0.32;0.25;;;;;;;;;;5049490;28;20204;-75
2021/03/23 11:38:35;;;;;;;0.10;0.10;;;;;;;;;;5068615;28;20172;-74
2021/03/23 11:41:03;;;;;;;0.10;0.10;;;;;;;;;;5049925;28;20189;-75
2021/03/23 11:43:50;;;;;;;0.32;0.32;;;;;;;;;;5030541;28;20185;-75
2021/03/23 11:46:23;;;;;;;0.13;0.13;;;;;;;;;;5061408;28;20196;-74
2021/03/23 11:48:54;;;;;;;3.30;0.63;;;;;;;;;;5068149;28;20236;-74
2021/03/23 11:51:22;;;;;;;0.40;0.40;;;;;;;;;;5068522;28;20173;-74
2021/03/23 11:53:49;;;;;;;0.30;0.30;;;;;;;;;;5067919;28;20251;-74
2021/03/23 11:56:16;;;;;;;0.38;0.38;;;;;;;;;;5068109;28;20215;-74
2021/03/23 11:58:42;;;;;;;0.10;0.10;;;;;;;;;;5050252;28;20168;-74
2021/03/23 12:01:09;;;;;;;0.10;0.10;;;;;;;;;;5068255;28;20181;-74
2021/03/23 12:03:35;;;;;;;0.32;0.32;;;;;;;;;;5068094;28;20192;-74
2021/03/23 12:06:01;;;;;;;0.15;0.15;;;;;;;;;;5058884;28;20240;-74
2021/03/23 12:08:33;;;;;;;0.10;0.10;;;;;;;;;;5037941;28;20208;-74
2021/03/23 12:11:00;;;;;;;0.10;0.10;;;;;;;;;;5066922;28;20149;-74
2021/03/23 12:13:45;;;;;;;0.13;0.13;;;;;;;;;;5068264;28;20200;-74
2021/03/23 12:16:14;;;;;;;0.10;0.10;;;;;;;;;;5068006;28;20161;-74
2021/03/23 12:18:40;;;;;;;0.10;0.10;;;;;;;;;;5050062;28;20196;-74
2021/03/23 12:21:07;;;;;;;0.52;0.52;;;;;;;;;;5052176;28;20282;-74
2021/03/23 12:23:33;;;;;;;0.13;0.13;;;;;;;;;;5067831;28;20199;-74
2021/03/23 12:26:00;;;;;;;0.10;0.10;;;;;;;;;;5071436;28;20165;-74
2021/03/23 12:28:26;;;;;;;0.10;0.10;;;;;;;;;;5042428;28;20185;-74
2021/03/23 12:30:52;;;;;;;0.10;0.10;;;;;;;;;;5051107;28;20171;-73
2021/03/23 12:33:19;;;;;;;0.28;0.28;;;;;;;;;;5033219;28;20213;-74
2021/03/23 12:35:45;;;;;;;0.10;0.10;;;;;;;;;;5050971;28;20165;-74
2021/03/23 12:38:13;;;;;;;0.10;0.10;;;;;;;;;;5050699;28;20168;-74
2021/03/23 12:40:39;;;;;;;0.10;0.10;;;;;;;;;;5033653;28;20185;-74
2021/03/23 12:43:12;;;;;;;0.75;0.75;;;;;;;;;;5033588;28;20216;-74
2021/03/23 12:45:40;;;;;;;1.50;0.40;;;;;;;;;;5070403;28;20404;-74
2021/03/23 12:48:08;;;;;;;0.10;0.10;;;;;;;;;;5065525;28;20556;-74
2021/03/23 12:50:34;;;;;;;0.47;0.47;;;;;;;;;;5068135;28;20203;-74
2021/03/23 12:53:02;;;;;;;0.10;0.10;;;;;;;;;;5064544;28;20255;-74
2021/03/23 12:55:30;;;;;;;0.10;0.10;;;;;;;;;;5046771;28;20176;-73
2021/03/23 12:57:57;;;;;;;0.10;0.10;;;;;;;;;;5065654;28;20229;-74
2021/03/23 13:00:24;;;;;;;0.25;0.25;;;;;;;;;;5047548;28;20176;-74
2021/03/23 13:02:50;;;;;;;0.10;0.10;;;;;;;;;;5065554;28;20167;-73
2021/03/23 13:05:16;;;;;;;0.10;0.10;;;;;;;;;;5064598;28;20157;-73
2021/03/23 13:07:43;;;;;;;0.47;0.47;;;;;;;;;;5065276;28;20166;-73
2021/03/23 13:10:27;;;;;;;0.20;0.20;;;;;;;;;;5047330;28;20172;-73
2021/03/23 13:12:54;;;;;;;0.70;0.70;;;;;;;;;;5047135;28;20204;-73
2021/03/23 13:15:20;;;;;;;0.10;0.10;;;;;;;;;;5064799;28;20153;-73
2021/03/23 13:17:46;;;;;;;0.20;0.20;;;;;;;;;;5058678;28;20200;-73
2021/03/23 13:20:13;;;;;;;0.20;0.20;;;;;;;;;;5063243;28;20185;-72
2021/03/23 13:22:43;;;;;;;0.17;0.17;;;;;;;;;;5064798;28;20172;-72
2021/03/23 13:25:14;;;;;;;0.20;0.20;;;;;;;;;;5064815;28;20199;-74
2021/03/23 13:27:40;;;;;;;0.15;0.15;;;;;;;;;;5064742;28;20204;-74
2021/03/23 13:30:09;;;;;;;0.20;0.20;;;;;;;;;;5064086;28;20539;-75
2021/03/23 13:32:35;;;;;;;0.10;0.10;;;;;;;;;;5064595;28;20224;-73
2021/03/23 13:35:01;;;;;;;0.52;0.50;;;;;;;;;;5065023;28;20187;-74
2021/03/23 13:37:29;;;;;;;0.10;0.10;;;;;;;;;;5046098;28;20208;-74
2021/03/23 13:39:57;;;;;;;0.20;0.20;;;;;;;;;;5064140;28;20153;-74
2021/03/23 13:42:24;;;;;;;0.10;0.10;;;;;;;;;;5064962;28;20180;-75
2021/03/23 13:45:15;;;;;;;2.08;1.20;;;;;;;;;;5075042;28;20188;-74
2021/03/23 13:47:43;;;;;;;0.10;0.10;;;;;;;;;;5037432;28;20204;-76
2021/03/23 13:50:11;;;;;;;0.30;0.25;;;;;;;;;;5038005;28;20255;-74
2021/03/23 13:52:39;;;;;;;0.10;0.10;;;;;;;;;;5010139;28;20233;-74
2021/03/23 13:55:23;;;;;;;0.20;0.20;;;;;;;;;;5025196;28;21053;-73
2021/03/23 13:57:50;;;;;;;0.20;0.20;;;;;;;;;;5019993;28;20189;-74
2021/03/23 14:00:19;;;;;;;0.10;0.10;;;;;;;;;;5042943;28;20193;-74
2021/03/23 14:02:45;;;;;;;0.32;0.32;;;;;;;;;;5042507;28;20165;-74
2021/03/23 14:05:13;;;;;;;0.10;0.10;;;;;;;;;;5022597;28;20173;-74
2021/03/23 14:07:40;;;;;;;0.10;0.10;;;;;;;;;;5044109;28;20193;-74
2021/03/23 14:10:08;;;;;;;0.75;0.75;;;;;;;;;;5026432;28;20235;-73
2021/03/23 14:12:34;;;;;;;0.20;0.20;;;;;;;;;;5043048;28;20233;-74
2021/03/23 14:15:01;;;;;;;0.45;0.45;;;;;;;;;;5044051;28;20161;-73
2021/03/23 14:17:28;;;;;;;0.20;0.20;;;;;;;;;;5041158;28;20219;-74
2021/03/23 14:19:55;;;;;;;0.10;0.10;;;;;;;;;;5024567;28;20200;-74
2021/03/23 14:22:25;;;;;;;0.10;0.10;;;;;;;;;;5041392;28;20177;-74
2021/03/23 14:24:51;;;;;;;0.10;0.10;;;;;;;;;;5023030;28;20189;-74
2021/03/23 14:27:18;;;;;;;0.10;0.10;;;;;;;;;;5042169;28;20201;-74
2021/03/23 14:29:44;;;;;;;0.30;0.30;;;;;;;;;;5042382;28;20177;-74
2021/03/23 14:32:10;;;;;;;0.10;0.10;;;;;;;;;;5041835;28;20216;-73
2021/03/23 14:34:37;;;;;;;0.10;0.10;;;;;;;;;;5041653;28;20264;-73
2021/03/23 14:37:03;;;;;;;0.45;0.45;;;;;;;;;;5024513;28;20567;-73
2021/03/23 14:39:32;;;;;;;0.17;0.17;;;;;;;;;;5042227;28;20287;-72
2021/03/23 14:41:58;;;;;;;0.10;0.10;;;;;;;;;;5042534;28;20189;-72
2021/03/23 14:44:25;;;;;;;0.30;0.30;;;;;;;;;;5041470;28;20236;-74
2021/03/23 14:46:51;;;;;;;7.25;2.20;;;;;;;;;;5042084;28;20223;-73
2021/03/23 14:49:17;;;;;;;0.20;0.20;;;;;;;;;;5056932;28;20227;-73
2021/03/23 14:51:44;;;;;;;0.50;0.50;;;;;;;;;;5062134;28;20774;-74
2021/03/23 14:54:15;;;;;;;0.10;0.10;;;;;;;;;;5061872;28;20169;-74
2021/03/23 14:56:42;;;;;;;0.10;0.10;;;;;;;;;;5043441;28;20219;-74
2021/03/23 14:59:09;;;;;;;0.25;0.25;;;;;;;;;;5061980;28;20173;-74